KOSA

Mount Pleasant Regional Airport

Mount Pleasant, Texas, USA
METAR KOSA 151935Z AUTO 23005KT 22/13 A2968 RMK AO1 T02240131
Observed Flight Rules
Feb-15 @ 19:35 UTC (12 minutes ago)
Wind
230° at 5 knots
Temperatures Readings
Current 22°C / 72°F
Dewpoint 13°C / 55°F
Humidity 57%
Altimeter 29.68" Hg
Pressure 1005.12 hPa
Elevation 111
METAR KOSA 151935Z AUTO 23005KT 22/13 A2968 RMK AO1 T02240131
Observed Flight Rules
Feb-15 @ 19:35 UTC
(12 minutes ago)
Wind
230° at 5 knots
Temperature Dewpoint
22°C / 72°F 13°C / 55°F
Humidity Altimeter Pressure
57% 29.68" Hg 1005.12 hPa